Time;durP1;ratioP1;P1;durP2;ratioP2;P2;SDS_P1;SDS_P2;PMS_P1;PMS_P2;Temp;Humidity;BMP_temperature;BMP_pressure;BME280_temperature;BME280_humidity;BME280_pressure;Samples;Min_cycle;Max_cycle;Signal;HPM_P1;HPM_P2
2021/04/17 00:01:37;;;;;;;3.58;1.58;;;;;11.10;102662.00;;;;5089425;28;20199;-78
2021/04/17 00:04:05;;;;;;;2.45;1.35;;;;;11.00;102664.00;;;;5087900;28;20202;-78
2021/04/17 00:06:32;;;;;;;4.00;1.90;;;;;11.00;102664.00;;;;5088957;28;20199;-78
2021/04/17 00:09:00;;;;;;;4.47;2.10;;;;;11.00;102658.00;;;;5088380;28;20190;-78
2021/04/17 00:11:28;;;;;;;2.97;1.45;;;;;11.00;102656.00;;;;5089275;28;20226;-78
2021/04/17 00:13:55;;;;;;;3.28;1.70;;;;;11.00;102658.00;;;;5088685;28;20277;-78
2021/04/17 00:16:22;;;;;;;3.15;1.70;;;;;10.90;102655.00;;;;5088763;28;20253;-78
2021/04/17 00:18:48;;;;;;;3.28;1.67;;;;;10.90;102662.00;;;;5088132;28;20267;-78
2021/04/17 00:21:15;;;;;;;4.00;2.17;;;;;10.90;102654.00;;;;5089289;28;20198;-78
2021/04/17 00:23:42;;;;;;;3.10;1.55;;;;;10.90;102654.00;;;;5088767;28;20201;-79
2021/04/17 00:26:09;;;;;;;2.65;1.75;;;;;10.90;102652.00;;;;5088159;28;20210;-78
2021/04/17 00:28:36;;;;;;;3.03;1.75;;;;;10.80;102651.00;;;;5087733;28;20190;-78
2021/04/17 00:31:03;;;;;;;3.90;1.77;;;;;10.80;102650.00;;;;5072034;28;20218;-78
2021/04/17 00:33:30;;;;;;;4.28;1.63;;;;;10.80;102651.00;;;;5069172;28;20199;-78
2021/04/17 00:35:56;;;;;;;3.15;1.77;;;;;10.80;102647.00;;;;5068195;28;20206;-79
2021/04/17 00:38:23;;;;;;;2.42;1.30;;;;;10.70;102645.00;;;;5074972;28;20198;-78
2021/04/17 00:40:50;;;;;;;3.10;1.48;;;;;10.70;102647.00;;;;5087997;28;20209;-79
2021/04/17 00:43:17;;;;;;;4.22;2.22;;;;;10.70;102638.00;;;;5088065;28;20198;-78
2021/04/17 00:45:45;;;;;;;4.97;1.95;;;;;10.70;102646.00;;;;5087730;28;20222;-78
2021/04/17 00:48:13;;;;;;;2.47;1.65;;;;;10.60;102639.00;;;;5087622;28;20194;-78
2021/04/17 00:50:41;;;;;;;6.47;2.10;;;;;10.60;102643.00;;;;5088121;28;20237;-78
2021/04/17 00:53:08;;;;;;;3.13;1.60;;;;;10.60;102643.00;;;;5087867;28;20213;-78
2021/04/17 00:55:35;;;;;;;2.47;1.58;;;;;10.60;102645.00;;;;5087986;28;20217;-78
2021/04/17 00:58:03;;;;;;;3.97;1.80;;;;;10.50;102644.00;;;;5087525;28;20218;-78
2021/04/17 01:00:32;;;;;;;4.68;1.58;;;;;10.50;102638.00;;;;5086971;28;20186;-78
2021/04/17 01:03:05;;;;;;;2.28;1.33;;;;;10.50;102647.00;;;;5087945;28;20335;-79
2021/04/17 01:05:33;;;;;;;3.67;1.95;;;;;10.50;102645.00;;;;5087953;28;20248;-78
2021/04/17 01:08:05;;;;;;;3.97;1.92;;;;;10.40;102635.00;;;;5087990;28;20194;-78
2021/04/17 01:10:37;;;;;;;3.10;1.50;;;;;10.40;102634.00;;;;5072628;28;20211;-78
2021/04/17 01:13:05;;;;;;;3.88;1.95;;;;;10.40;102642.00;;;;5087852;28;20583;-78
2021/04/17 01:15:33;;;;;;;3.58;1.85;;;;;10.40;102639.00;;;;5088130;28;20203;-78
2021/04/17 01:18:02;;;;;;;3.30;1.30;;;;;10.30;102641.00;;;;5088222;28;20570;-78
2021/04/17 01:20:35;;;;;;;4.22;2.08;;;;;10.30;102631.00;;;;5090533;28;20187;-78
2021/04/17 01:23:11;;;;;;;4.78;1.50;;;;;10.30;102624.00;;;;5092554;28;20206;-77
2021/04/17 01:25:52;;;;;;;2.60;1.58;;;;;10.20;102627.00;;;;5093481;28;20201;-77
2021/04/17 01:28:21;;;;;;;2.10;1.40;;;;;10.20;102633.00;;;;5092808;28;20570;-78
2021/04/17 01:30:49;;;;;;;3.00;1.67;;;;;10.20;102629.00;;;;5083868;28;20217;-78
2021/04/17 01:33:18;;;;;;;4.38;1.45;;;;;10.20;102620.00;;;;5092281;28;20209;-78
2021/04/17 01:35:47;;;;;;;3.47;1.52;;;;;10.20;102635.00;;;;5092975;28;20198;-78
2021/04/17 01:38:19;;;;;;;2.13;1.23;;;;;10.10;102633.00;;;;5092247;28;20577;-78
2021/04/17 01:40:51;;;;;;;3.47;1.33;;;;;10.10;102640.00;;;;5091995;28;20202;-78
2021/04/17 01:43:21;;;;;;;4.05;2.05;;;;;10.10;102638.00;;;;5091245;28;20191;-78
2021/04/17 01:45:49;;;;;;;2.65;1.65;;;;;10.10;102630.00;;;;5078980;28;21520;-78
2021/04/17 01:48:18;;;;;;;5.68;1.38;;;;;10.10;102635.00;;;;5087886;28;20225;-78
2021/04/17 01:50:47;;;;;;;3.00;1.75;;;;;10.10;102634.00;;;;5091659;28;20226;-78
2021/04/17 01:53:19;;;;;;;4.45;1.73;;;;;10.00;102631.00;;;;5092115;28;20199;-78
2021/04/17 01:55:47;;;;;;;2.28;1.30;;;;;10.10;102635.00;;;;5091767;28;20266;-78
2021/04/17 01:58:19;;;;;;;2.47;1.38;;;;;10.00;102639.00;;;;5091677;28;20210;-78
2021/04/17 02:00:47;;;;;;;2.30;1.00;;;;;10.10;102620.00;;;;5091948;28;20286;-78
2021/04/17 02:03:14;;;;;;;3.13;1.35;;;;;10.00;102626.00;;;;5087956;28;20195;-78
2021/04/17 02:05:41;;;;;;;2.90;1.48;;;;;10.00;102621.00;;;;5090956;28;20202;-78
2021/04/17 02:08:07;;;;;;;2.45;1.60;;;;;10.00;102624.00;;;;5091614;28;20405;-78
2021/04/17 02:10:34;;;;;;;2.40;1.48;;;;;10.00;102624.00;;;;5091212;28;20226;-78
2021/04/17 02:13:02;;;;;;;2.67;1.27;;;;;10.00;102618.00;;;;5090920;28;21055;-78
2021/04/17 02:15:30;;;;;;;2.38;1.35;;;;;10.00;102614.00;;;;5092082;28;20198;-78
2021/04/17 02:18:00;;;;;;;2.38;1.27;;;;;10.00;102611.00;;;;5090653;28;20271;-78
2021/04/17 02:20:33;;;;;;;2.03;1.23;;;;;9.90;102606.00;;;;5091538;28;20200;-78
2021/04/17 02:22:59;;;;;;;2.08;1.27;;;;;10.00;102603.00;;;;5071063;28;20195;-78
2021/04/17 02:25:26;;;;;;;1.60;1.02;;;;;9.90;102601.00;;;;5071085;28;20199;-78
2021/04/17 02:27:53;;;;;;;2.78;1.40;;;;;9.90;102608.00;;;;5071287;28;20198;-78
2021/04/17 02:30:21;;;;;;;2.90;1.42;;;;;9.90;102607.00;;;;5071151;28;20214;-78
2021/04/17 02:32:48;;;;;;;2.75;1.20;;;;;9.90;102602.00;;;;5089659;28;20963;-79
2021/04/17 02:35:15;;;;;;;1.83;1.20;;;;;9.90;102608.00;;;;5090687;28;20198;-78
2021/04/17 02:37:42;;;;;;;2.88;1.52;;;;;9.90;102600.00;;;;5090070;28;20202;-77
2021/04/17 02:40:10;;;;;;;1.38;1.00;;;;;9.80;102603.00;;;;5091166;28;20202;-77
2021/04/17 02:42:37;;;;;;;6.85;1.80;;;;;9.80;102610.00;;;;5090094;28;20194;-78
2021/04/17 02:45:04;;;;;;;2.22;0.98;;;;;9.80;102606.00;;;;5090406;28;20218;-79
2021/04/17 02:47:32;;;;;;;2.78;1.38;;;;;9.80;102607.00;;;;5091143;28;20195;-78
2021/04/17 02:49:59;;;;;;;3.65;1.20;;;;;9.80;102605.00;;;;5089815;28;20857;-78
2021/04/17 02:52:26;;;;;;;3.72;1.75;;;;;9.70;102612.00;;;;5090758;28;20226;-78
2021/04/17 02:54:53;;;;;;;1.65;1.10;;;;;9.70;102606.00;;;;5090270;28;20199;-77
2021/04/17 02:57:20;;;;;;;2.58;1.35;;;;;9.70;102609.00;;;;5090503;28;20219;-78
2021/04/17 02:59:46;;;;;;;1.38;0.98;;;;;9.70;102610.00;;;;5090307;28;20668;-78
2021/04/17 03:02:14;;;;;;;3.05;1.25;;;;;9.70;102603.00;;;;5090791;28;20194;-77
2021/04/17 03:04:42;;;;;;;1.77;1.27;;;;;9.60;102608.00;;;;5090908;28;20194;-78
2021/04/17 03:07:09;;;;;;;2.03;1.38;;;;;9.70;102601.00;;;;5088152;28;20249;-78
2021/04/17 03:09:35;;;;;;;4.03;1.33;;;;;9.60;102597.00;;;;5089230;28;20625;-78
2021/04/17 03:12:02;;;;;;;4.03;1.15;;;;;9.60;102597.00;;;;5089540;28;20267;-77
2021/04/17 03:14:29;;;;;;;2.80;1.10;;;;;9.60;102608.00;;;;5090613;28;20210;-77
2021/04/17 03:16:56;;;;;;;4.60;1.63;;;;;9.60;102598.00;;;;5090623;28;20213;-77
2021/04/17 03:19:22;;;;;;;1.23;0.93;;;;;9.60;102600.00;;;;5089516;28;20190;-78
2021/04/17 03:21:50;;;;;;;2.63;1.30;;;;;9.60;102595.00;;;;5090346;28;20210;-77
2021/04/17 03:24:17;;;;;;;1.58;1.20;;;;;9.60;102589.00;;;;5090383;28;20243;-78
2021/04/17 03:26:43;;;;;;;1.60;1.10;;;;;9.60;102593.00;;;;5081079;28;20203;-78
2021/04/17 03:29:10;;;;;;;1.95;1.10;;;;;9.60;102595.00;;;;5076226;28;20194;-77
2021/04/17 03:31:37;;;;;;;3.65;1.23;;;;;9.60;102595.00;;;;5090481;28;20245;-78
2021/04/17 03:34:04;;;;;;;2.88;1.42;;;;;9.60;102592.00;;;;5090651;28;20198;-77
2021/04/17 03:36:30;;;;;;;2.67;1.17;;;;;9.60;102589.00;;;;5089878;28;20252;-77
2021/04/17 03:38:58;;;;;;;4.90;1.60;;;;;9.60;102594.00;;;;5088924;28;20263;-78
2021/04/17 03:41:25;;;;;;;4.95;1.25;;;;;9.60;102594.00;;;;5090137;28;20217;-78
2021/04/17 03:43:52;;;;;;;1.45;1.08;;;;;9.60;102589.00;;;;5088380;28;20213;-78
2021/04/17 03:46:18;;;;;;;3.63;1.08;;;;;9.60;102597.00;;;;5089507;28;20198;-78
2021/04/17 03:48:45;;;;;;;1.85;0.85;;;;;9.60;102603.00;;;;5089375;28;20194;-78
2021/04/17 03:51:12;;;;;;;1.73;1.05;;;;;9.60;102598.00;;;;5088863;28;20237;-78
2021/04/17 03:53:38;;;;;;;1.30;1.00;;;;;9.60;102596.00;;;;5088876;28;20251;-78
2021/04/17 03:56:07;;;;;;;5.55;1.20;;;;;9.60;102596.00;;;;5069300;28;20206;-78
2021/04/17 03:58:34;;;;;;;3.08;1.38;;;;;9.60;102600.00;;;;5069127;28;20261;-78
2021/04/17 04:01:01;;;;;;;1.55;0.95;;;;;9.60;102608.00;;;;5086975;28;20568;-78
2021/04/17 04:03:28;;;;;;;1.30;0.88;;;;;9.60;102603.00;;;;5088773;28;20198;-76
2021/04/17 04:05:54;;;;;;;1.70;1.05;;;;;9.60;102610.00;;;;5089742;28;20201;-77
2021/04/17 04:08:21;;;;;;;2.40;1.60;;;;;9.60;102602.00;;;;5088483;28;20194;-78
2021/04/17 04:10:48;;;;;;;5.30;1.00;;;;;9.60;102610.00;;;;5088310;28;20264;-77
2021/04/17 04:13:15;;;;;;;3.38;0.98;;;;;9.60;102610.00;;;;5088315;28;20687;-77
2021/04/17 04:15:42;;;;;;;2.53;1.05;;;;;9.60;102614.00;;;;5089287;28;20202;-77
2021/04/17 04:18:09;;;;;;;3.20;1.08;;;;;9.60;102606.00;;;;5088567;28;20600;-77
2021/04/17 04:20:36;;;;;;;4.82;1.20;;;;;9.60;102616.00;;;;5087749;28;20209;-77
2021/04/17 04:23:03;;;;;;;2.20;1.30;;;;;9.60;102612.00;;;;5088556;28;20792;-77
2021/04/17 04:25:30;;;;;;;2.45;1.25;;;;;9.60;102606.00;;;;5087623;28;20202;-77
2021/04/17 04:27:57;;;;;;;1.50;1.02;;;;;9.60;102603.00;;;;5088560;28;20210;-78
2021/04/17 04:30:25;;;;;;;2.50;1.08;;;;;9.60;102607.00;;;;5089439;28;20198;-78
2021/04/17 04:32:52;;;;;;;3.70;1.58;;;;;9.60;102604.00;;;;5088980;28;20202;-78
2021/04/17 04:35:19;;;;;;;4.30;1.55;;;;;9.60;102600.00;;;;5082684;28;20217;-77
2021/04/17 04:37:45;;;;;;;2.28;1.25;;;;;9.60;102603.00;;;;5088388;28;20202;-77
2021/04/17 04:40:12;;;;;;;2.95;1.52;;;;;9.60;102604.00;;;;5068594;28;20634;-77
2021/04/17 04:42:39;;;;;;;2.75;1.70;;;;;9.60;102599.00;;;;5068600;28;20244;-78
2021/04/17 04:45:09;;;;;;;1.85;1.38;;;;;9.70;102604.00;;;;5084372;28;20198;-78
2021/04/17 04:47:37;;;;;;;2.25;1.25;;;;;9.70;102605.00;;;;5088348;28;20205;-77
2021/04/17 04:50:05;;;;;;;3.40;1.70;;;;;9.70;102601.00;;;;5086069;28;20284;-78
2021/04/17 04:52:32;;;;;;;3.92;1.88;;;;;9.70;102597.00;;;;5087431;28;20222;-78
2021/04/17 04:54:59;;;;;;;2.75;1.52;;;;;9.70;102607.00;;;;5076636;28;20294;-78
2021/04/17 04:57:26;;;;;;;2.17;1.50;;;;;9.70;102600.00;;;;5084603;28;20218;-78
2021/04/17 04:59:52;;;;;;;2.28;1.48;;;;;9.70;102595.00;;;;5087248;28;20209;-78
2021/04/17 05:02:19;;;;;;;3.78;1.58;;;;;9.70;102599.00;;;;5088612;28;20198;-77
2021/04/17 05:04:47;;;;;;;3.42;1.73;;;;;9.70;102601.00;;;;5078841;28;20201;-78
2021/04/17 05:07:14;;;;;;;3.13;1.67;;;;;9.80;102597.00;;;;5068167;28;20209;-77
2021/04/17 05:09:41;;;;;;;1.77;1.27;;;;;9.80;102609.00;;;;5068687;28;20249;-76
2021/04/17 05:12:08;;;;;;;1.73;1.40;;;;;9.80;102602.00;;;;5085075;28;20229;-76
2021/04/17 05:14:35;;;;;;;4.00;1.55;;;;;9.80;102610.00;;;;5084800;28;20220;-77
2021/04/17 05:17:02;;;;;;;3.83;1.92;;;;;9.80;102601.00;;;;5086053;28;20687;-77
2021/04/17 05:19:29;;;;;;;2.63;1.67;;;;;9.90;102599.00;;;;5086569;28;20244;-77
2021/04/17 05:21:56;;;;;;;4.05;1.90;;;;;9.90;102608.00;;;;5088162;28;20190;-77
2021/04/17 05:24:23;;;;;;;8.20;2.05;;;;;9.90;102603.00;;;;5088137;28;20202;-78
2021/04/17 05:26:50;;;;;;;2.75;1.70;;;;;9.90;102607.00;;;;5087783;28;20202;-78
2021/04/17 05:29:17;;;;;;;6.32;2.40;;;;;10.00;102612.00;;;;5087928;28;20201;-77
2021/04/17 05:31:43;;;;;;;3.13;1.67;;;;;10.00;102610.00;;;;5088484;28;20271;-77
2021/04/17 05:34:11;;;;;;;3.60;1.50;;;;;10.00;102606.00;;;;5088475;28;20205;-77
2021/04/17 05:36:38;;;;;;;4.15;1.73;;;;;10.10;102613.00;;;;5087451;28;20195;-77
2021/04/17 05:39:06;;;;;;;2.67;1.52;;;;;10.10;102610.00;;;;5087160;28;20210;-77
2021/04/17 05:41:32;;;;;;;4.70;1.50;;;;;10.20;102617.00;;;;5088062;28;20208;-77
2021/04/17 05:43:59;;;;;;;3.55;1.40;;;;;10.20;102604.00;;;;5087196;28;20205;-77
2021/04/17 05:46:26;;;;;;;3.65;1.60;;;;;10.30;102610.00;;;;5087649;28;20777;-77
2021/04/17 05:48:53;;;;;;;2.78;1.40;;;;;10.30;102608.00;;;;5085941;28;20316;-78
2021/04/17 05:51:20;;;;;;;3.25;1.77;;;;;10.40;102610.00;;;;5087332;28;20770;-77
2021/04/17 05:53:46;;;;;;;2.33;1.25;;;;;10.40;102605.00;;;;5079268;28;20257;-78
2021/04/17 05:56:14;;;;;;;5.55;1.60;;;;;10.50;102607.00;;;;5087251;28;20199;-77
2021/04/17 05:58:41;;;;;;;2.85;1.67;;;;;10.50;102603.00;;;;5087106;28;20222;-77
2021/04/17 06:01:07;;;;;;;3.03;1.90;;;;;10.60;102599.00;;;;5086652;28;20202;-77
2021/04/17 06:03:34;;;;;;;4.43;1.58;;;;;10.70;102600.00;;;;5086242;28;20190;-77
2021/04/17 06:06:01;;;;;;;6.10;1.90;;;;;10.70;102599.00;;;;5074693;28;20249;-78
2021/04/17 06:08:28;;;;;;;2.78;1.83;;;;;10.80;102600.00;;;;5088754;28;20269;-78
2021/04/17 06:10:54;;;;;;;3.15;1.60;;;;;10.90;102607.00;;;;5084442;28;20198;-78
2021/04/17 06:13:22;;;;;;;2.65;1.60;;;;;10.90;102598.00;;;;5087102;28;20194;-77
2021/04/17 06:15:49;;;;;;;3.42;1.42;;;;;10.90;102599.00;;;;5090602;28;20198;-77
2021/04/17 06:18:16;;;;;;;1.88;1.38;;;;;11.00;102603.00;;;;5087931;28;20679;-77
2021/04/17 06:20:42;;;;;;;3.17;1.88;;;;;11.10;102606.00;;;;5088874;28;20606;-77
2021/04/17 06:23:09;;;;;;;3.20;1.60;;;;;11.20;102612.00;;;;5086359;28;20203;-78
2021/04/17 06:25:36;;;;;;;4.95;1.50;;;;;11.20;102615.00;;;;5090662;28;20874;-78
2021/04/17 06:28:03;;;;;;;2.80;1.60;;;;;11.30;102614.00;;;;5085664;28;20583;-78
2021/04/17 06:30:31;;;;;;;3.85;1.90;;;;;11.40;102610.00;;;;5085555;28;20191;-78
2021/04/17 06:32:58;;;;;;;1.60;1.27;;;;;11.40;102614.00;;;;5062424;28;20536;-78
2021/04/17 06:35:24;;;;;;;4.40;1.42;;;;;11.50;102613.00;;;;5079862;28;20681;-78
2021/04/17 06:37:51;;;;;;;3.63;1.08;;;;;11.60;102614.00;;;;5082081;28;20723;-78
2021/04/17 06:40:18;;;;;;;3.40;1.40;;;;;11.60;102610.00;;;;5089578;28;20209;-78
2021/04/17 06:42:46;;;;;;;2.70;1.48;;;;;11.70;102610.00;;;;5089283;28;20265;-79
2021/04/17 06:45:14;;;;;;;3.30;1.40;;;;;11.80;102606.00;;;;5090472;28;20251;-78
2021/04/17 06:47:42;;;;;;;2.90;1.42;;;;;11.80;102607.00;;;;5081798;28;20210;-78
2021/04/17 06:50:11;;;;;;;3.15;1.33;;;;;11.90;102609.00;;;;5078879;28;20242;-79
2021/04/17 06:52:39;;;;;;;3.78;1.50;;;;;12.00;102614.00;;;;5080412;28;20260;-78
2021/04/17 06:55:08;;;;;;;2.22;1.13;;;;;12.10;102612.00;;;;5086008;28;20603;-79
2021/04/17 06:57:36;;;;;;;1.88;1.02;;;;;12.10;102613.00;;;;5088105;28;20207;-78
2021/04/17 07:00:06;;;;;;;2.20;1.13;;;;;12.20;102607.00;;;;5088980;28;20562;-79
2021/04/17 07:02:32;;;;;;;2.05;1.00;;;;;12.20;102603.00;;;;5090721;28;20562;-79
2021/04/17 07:05:00;;;;;;;1.42;0.93;;;;;12.30;102604.00;;;;5089767;28;20694;-78
2021/04/17 07:07:31;;;;;;;6.28;1.45;;;;;12.40;102606.00;;;;5086612;28;20217;-79
2021/04/17 07:09:57;;;;;;;3.42;0.80;;;;;12.40;102606.00;;;;5086996;28;20205;-79
2021/04/17 07:12:24;;;;;;;2.65;1.13;;;;;12.50;102605.00;;;;5090136;28;20222;-78
2021/04/17 07:14:53;;;;;;;1.40;0.65;;;;;12.60;102606.00;;;;5089297;28;20194;-77
2021/04/17 07:17:21;;;;;;;1.63;0.98;;;;;12.60;102605.00;;;;5088758;28;20240;-78
2021/04/17 07:19:53;;;;;;;3.20;0.98;;;;;12.70;102603.00;;;;5083116;28;20199;-78
2021/04/17 07:22:23;;;;;;;1.60;0.88;;;;;12.80;102599.00;;;;5090487;28;20223;-78
2021/04/17 07:24:51;;;;;;;1.27;0.50;;;;;12.90;102599.00;;;;5089026;28;20199;-78
2021/04/17 07:27:36;;;;;;;1.02;0.75;;;;;12.90;102594.00;;;;5087145;28;20285;-81
2021/04/17 07:30:07;;;;;;;4.15;0.80;;;;;13.00;102590.00;;;;5086676;28;20614;-78
2021/04/17 07:32:34;;;;;;;1.30;0.80;;;;;13.10;102600.00;;;;5069432;28;20585;-78
2021/04/17 07:35:07;;;;;;;0.63;0.43;;;;;13.10;102602.00;;;;5069405;28;20195;-78
2021/04/17 07:37:35;;;;;;;1.40;0.73;;;;;13.20;102595.00;;;;5085311;28;20194;-78
2021/04/17 07:40:23;;;;;;;1.85;0.60;;;;;13.20;102594.00;;;;5089262;28;20206;-78
2021/04/17 07:42:52;;;;;;;1.48;0.55;;;;;13.40;102598.00;;;;5089630;28;20198;-76
2021/04/17 07:45:23;;;;;;;1.67;0.38;;;;;13.50;102603.00;;;;5088386;28;20605;-78
2021/04/17 07:47:51;;;;;;;5.90;0.80;;;;;13.60;102614.00;;;;5068959;28;20830;-80
2021/04/17 07:50:18;;;;;;;0.93;0.40;;;;;13.70;102602.00;;;;5080209;28;20559;-79
2021/04/17 07:52:47;;;;;;;2.25;0.50;;;;;13.80;102603.00;;;;5074481;28;20213;-78
2021/04/17 07:55:17;;;;;;;2.28;0.50;;;;;13.80;102604.00;;;;5087606;28;20194;-78
2021/04/17 07:57:45;;;;;;;0.82;0.50;;;;;13.90;102608.00;;;;5089032;28;20206;-78
2021/04/17 08:00:14;;;;;;;1.08;0.47;;;;;14.00;102602.00;;;;5087576;28;20233;-78
2021/04/17 08:02:44;;;;;;;2.25;0.60;;;;;14.10;102606.00;;;;5088780;28;20198;-80
2021/04/17 08:05:13;;;;;;;1.55;0.60;;;;;14.10;102596.00;;;;5078041;28;20271;-78
2021/04/17 08:07:40;;;;;;;0.70;0.43;;;;;14.20;102605.00;;;;5089187;28;20202;-79
2021/04/17 08:10:09;;;;;;;1.30;0.68;;;;;14.30;102607.00;;;;5086204;28;20203;-78
2021/04/17 08:12:39;;;;;;;1.35;0.50;;;;;14.30;102604.00;;;;5076190;28;20222;-79
2021/04/17 08:15:09;;;;;;;3.72;0.60;;;;;14.40;102594.00;;;;5087246;28;20198;-81
2021/04/17 08:17:38;;;;;;;2.00;0.50;;;;;14.50;102596.00;;;;5073782;28;20582;-81
2021/04/17 08:20:08;;;;;;;1.85;0.60;;;;;14.60;102591.00;;;;5092211;28;20636;-81
2021/04/17 08:22:35;;;;;;;1.45;0.68;;;;;14.70;102591.00;;;;5081786;28;21248;-81
2021/04/17 08:25:03;;;;;;;2.22;0.60;;;;;14.80;102600.00;;;;5081099;28;20202;-80
2021/04/17 08:27:32;;;;;;;1.85;0.50;;;;;14.80;102594.00;;;;5087737;28;20651;-81
2021/04/17 08:30:05;;;;;;;0.80;0.50;;;;;14.90;102592.00;;;;5087135;28;20209;-80
2021/04/17 08:32:33;;;;;;;1.08;0.60;;;;;15.00;102593.00;;;;5087410;28;20221;-77
2021/04/17 08:35:07;;;;;;;0.93;0.50;;;;;15.10;102602.00;;;;5084747;28;20194;-78
2021/04/17 08:37:35;;;;;;;1.30;0.57;;;;;15.20;102598.00;;;;5087165;28;20208;-81
2021/04/17 08:40:05;;;;;;;2.35;0.90;;;;;15.20;102586.00;;;;5087933;28;20198;-79
2021/04/17 08:42:43;;;;;;;2.95;0.65;;;;;15.30;102595.00;;;;5088123;28;20206;-82
2021/04/17 08:45:14;;;;;;;3.17;0.70;;;;;15.40;102592.00;;;;5088876;28;20198;-82
2021/04/17 08:47:47;;;;;;;1.58;0.50;;;;;15.50;102591.00;;;;5088802;28;20255;-83
2021/04/17 08:50:27;;;;;;;1.63;0.63;;;;;15.50;102602.00;;;;5086442;28;20222;-81
2021/04/17 08:53:00;;;;;;;1.80;0.63;;;;;15.60;102589.00;;;;5088343;28;20222;-79
2021/04/17 08:55:29;;;;;;;0.70;0.40;;;;;15.70;102588.00;;;;5087530;28;20239;-80
2021/04/17 08:58:17;;;;;;;1.40;0.47;;;;;15.80;102584.00;;;;5088342;28;20214;-81
2021/04/17 09:00:59;;;;;;;1.80;0.57;;;;;16.00;102590.00;;;;5081746;28;20603;-81
2021/04/17 09:03:36;;;;;;;3.55;0.50;;;;;16.00;102586.00;;;;5082300;28;20209;-80
2021/04/17 09:06:05;;;;;;;0.80;0.40;;;;;16.10;102585.00;;;;5080734;28;20198;-80
2021/04/17 09:08:37;;;;;;;1.23;0.60;;;;;16.20;102586.00;;;;5087271;28;20204;-83
2021/04/17 09:11:36;;;;;;;2.40;1.20;;;;;16.20;102585.00;;;;5088442;28;20240;-82
2021/04/17 09:14:27;;;;;;;2.05;0.80;;;;;16.40;102584.00;;;;5088607;28;20658;-81
2021/04/17 09:16:54;;;;;;;1.30;0.60;;;;;16.50;102581.00;;;;5086594;28;20201;-79
2021/04/17 09:19:50;;;;;;;3.17;0.77;;;;;16.40;102584.00;;;;5089530;28;20198;-80
2021/04/17 09:22:45;;;;;;;2.13;0.75;;;;;16.40;102576.00;;;;5087973;28;20198;-80
2021/04/17 09:25:14;;;;;;;1.23;0.52;;;;;16.50;102576.00;;;;5071702;28;20198;-78
2021/04/17 09:27:42;;;;;;;2.58;0.55;;;;;16.50;102579.00;;;;5087596;28;20259;-80
2021/04/17 09:30:12;;;;;;;2.95;0.50;;;;;16.50;102576.00;;;;5087406;28;20252;-83
2021/04/17 09:32:41;;;;;;;3.25;0.98;;;;;16.50;102577.00;;;;5086491;28;20232;-79
2021/04/17 09:35:17;;;;;;;6.35;0.80;;;;;16.50;102568.00;;;;5083518;28;20231;-80
2021/04/17 09:37:45;;;;;;;1.42;0.82;;;;;16.60;102571.00;;;;5085464;28;20201;-80
2021/04/17 09:40:13;;;;;;;1.00;0.40;;;;;16.70;102569.00;;;;5086485;28;20660;-82
2021/04/17 09:42:41;;;;;;;0.70;0.60;;;;;16.70;102565.00;;;;5090982;28;20721;-81
2021/04/17 09:45:11;;;;;;;1.75;0.80;;;;;16.80;102556.00;;;;5088581;28;20206;-83
2021/04/17 09:47:53;;;;;;;1.23;1.00;;;;;16.90;102555.00;;;;5090622;28;20198;-82
2021/04/17 09:50:24;;;;;;;3.35;1.10;;;;;17.00;102553.00;;;;5090390;28;20704;-81
2021/04/17 09:52:52;;;;;;;2.15;0.80;;;;;17.10;102550.00;;;;5091647;28;20214;-80
2021/04/17 09:55:19;;;;;;;0.90;0.60;;;;;17.20;102542.00;;;;5090594;28;20594;-81
2021/04/17 09:57:46;;;;;;;3.08;1.08;;;;;17.30;102542.00;;;;5090158;28;20223;-80
2021/04/17 10:00:24;;;;;;;1.02;0.77;;;;;17.50;102547.00;;;;5088037;28;20206;-80
2021/04/17 10:02:50;;;;;;;2.42;0.80;;;;;17.60;102540.00;;;;5083468;28;20202;-79
2021/04/17 10:05:32;;;;;;;3.00;1.00;;;;;17.70;102537.00;;;;5086168;28;20194;-80
2021/04/17 10:07:59;;;;;;;2.22;0.80;;;;;17.90;102527.00;;;;5083416;28;20194;-81
2021/04/17 10:10:35;;;;;;;1.08;0.80;;;;;17.80;102527.00;;;;5086579;28;20665;-82
2021/04/17 10:13:02;;;;;;;1.65;0.82;;;;;18.00;102524.00;;;;5086737;28;20232;-83
2021/04/17 10:15:32;;;;;;;2.03;1.17;;;;;17.90;102528.00;;;;5089582;28;20206;-79
2021/04/17 10:18:01;;;;;;;2.45;0.77;;;;;18.00;102518.00;;;;5090298;28;20203;-81
2021/04/17 10:20:29;;;;;;;1.58;0.75;;;;;18.00;102518.00;;;;5090589;28;20199;-81
2021/04/17 10:22:57;;;;;;;2.28;0.80;;;;;18.00;102517.00;;;;5089486;28;20194;-81
2021/04/17 10:25:36;;;;;;;2.40;1.00;;;;;18.10;102516.00;;;;5090751;28;20202;-83
2021/04/17 10:28:14;;;;;;;3.20;1.40;;;;;18.10;102509.00;;;;5086781;28;20702;-81
2021/04/17 10:30:45;;;;;;;3.35;0.80;;;;;18.20;102513.00;;;;5090121;28;20202;-80
2021/04/17 10:33:14;;;;;;;1.13;0.80;;;;;18.20;102510.00;;;;5092213;28;20222;-80
2021/04/17 10:35:41;;;;;;;4.10;1.48;;;;;18.30;102504.00;;;;5089594;28;20544;-79
2021/04/17 10:38:07;;;;;;;1.73;0.77;;;;;18.40;102500.00;;;;5082726;28;20871;-81
2021/04/17 10:40:34;;;;;;;2.40;0.60;;;;;18.40;102497.00;;;;5080805;28;20216;-82
2021/04/17 10:43:04;;;;;;;2.08;0.90;;;;;18.40;102503.00;;;;5073516;28;20328;-82
2021/04/17 10:45:40;;;;;;;1.75;0.60;;;;;18.40;102503.00;;;;5085651;28;20195;-81
2021/04/17 10:48:11;;;;;;;2.03;0.80;;;;;18.50;102492.00;;;;5077766;28;20202;-80
2021/04/17 10:50:40;;;;;;;1.65;0.60;;;;;18.50;102484.00;;;;5091026;28;20230;-82
2021/04/17 10:53:09;;;;;;;1.73;1.00;;;;;18.50;102499.00;;;;5092135;28;20255;-81
2021/04/17 10:55:42;;;;;;;2.17;0.80;;;;;18.50;102489.00;;;;5071502;28;20199;-80
2021/04/17 10:58:22;;;;;;;1.92;0.75;;;;;18.50;102491.00;;;;5084289;28;20221;-81
2021/04/17 11:00:51;;;;;;;1.88;0.75;;;;;18.60;102492.00;;;;5088160;28;20194;-81
2021/04/17 11:03:19;;;;;;;2.22;0.80;;;;;18.60;102487.00;;;;5090187;28;20210;-80
2021/04/17 11:05:46;;;;;;;2.30;1.02;;;;;18.70;102483.00;;;;5086479;28;20691;-82
2021/04/17 11:08:20;;;;;;;1.23;0.70;;;;;18.90;102474.00;;;;5086440;28;20568;-80
2021/04/17 11:10:47;;;;;;;2.15;1.27;;;;;19.00;102477.00;;;;5090875;28;20213;-80
2021/04/17 11:13:29;;;;;;;3.72;0.90;;;;;18.90;102470.00;;;;5090753;28;20233;-81
2021/04/17 11:15:55;;;;;;;1.50;0.80;;;;;19.00;102466.00;;;;5083558;28;20187;-77
2021/04/17 11:18:23;;;;;;;1.80;0.80;;;;;19.00;102460.00;;;;5085579;28;20190;-82
2021/04/17 11:20:58;;;;;;;3.42;1.17;;;;;19.10;102464.00;;;;5076008;28;20195;-81
2021/04/17 11:23:40;;;;;;;3.38;1.10;;;;;19.10;102463.00;;;;5079032;28;20198;-81
2021/04/17 11:26:10;;;;;;;2.90;1.35;;;;;19.20;102466.00;;;;5087052;28;20198;-81
2021/04/17 11:28:40;;;;;;;3.25;1.10;;;;;19.10;102455.00;;;;5082268;28;20451;-85
2021/04/17 11:31:08;;;;;;;1.45;0.93;;;;;19.20;102456.00;;;;5076443;28;20202;-84
2021/04/17 11:33:36;;;;;;;1.08;0.90;;;;;19.10;102454.00;;;;5088134;28;20190;-84
2021/04/17 11:36:03;;;;;;;2.72;1.02;;;;;19.10;102459.00;;;;5088404;28;20198;-85
2021/04/17 11:38:29;;;;;;;4.80;1.20;;;;;19.10;102460.00;;;;5088296;28;20225;-82
2021/04/17 11:40:56;;;;;;;4.22;2.00;;;;;19.10;102452.00;;;;5089241;28;20203;-81
2021/04/17 11:43:23;;;;;;;6.65;2.78;;;;;19.20;102446.00;;;;5089985;28;20198;-81
2021/04/17 11:45:50;;;;;;;3.67;1.35;;;;;19.30;102432.00;;;;5088299;28;21044;-81
2021/04/17 11:48:18;;;;;;;4.97;3.03;;;;;19.40;102436.00;;;;5089225;28;20217;-81
2021/04/17 11:50:46;;;;;;;4.18;1.95;;;;;19.40;102437.00;;;;5085638;28;20218;-84
2021/04/17 11:53:16;;;;;;;4.15;1.30;;;;;19.40;102438.00;;;;5091225;28;20234;-84
2021/04/17 11:55:42;;;;;;;3.00;1.42;;;;;19.40;102438.00;;;;5090115;28;20582;-81
2021/04/17 11:58:09;;;;;;;3.50;1.10;;;;;19.40;102435.00;;;;5089427;28;20214;-81
2021/04/17 12:00:36;;;;;;;3.30;1.40;;;;;19.40;102428.00;;;;5087587;28;20221;-83
2021/04/17 12:03:03;;;;;;;3.30;1.30;;;;;19.50;102444.00;;;;5084711;28;20661;-83
2021/04/17 12:05:30;;;;;;;2.80;1.38;;;;;19.50;102444.00;;;;5073791;28;20202;-82
2021/04/17 12:07:58;;;;;;;2.75;0.90;;;;;19.50;102437.00;;;;5079899;28;20251;-82
2021/04/17 12:10:26;;;;;;;2.55;0.90;;;;;19.50;102426.00;;;;5087116;28;20198;-82
2021/04/17 12:12:53;;;;;;;3.10;1.70;;;;;19.60;102431.00;;;;5078619;28;20237;-81
2021/04/17 12:15:20;;;;;;;5.95;3.33;;;;;19.70;102431.00;;;;5077252;28;20243;-80
2021/04/17 12:17:47;;;;;;;6.00;2.75;;;;;19.70;102430.00;;;;5085738;28;20621;-81
2021/04/17 12:20:14;;;;;;;5.80;4.72;;;;;19.70;102436.00;;;;5086768;28;20226;-80